KGYH

Details ICAO KGYH
Name DONALDSON CENTER
Region United States
Timezone America/New_York (UTC-5.0)
Plans Departing 8
Arriving 7
Stats Elevation 955 ft / 291 m (AMSL)
Location 34.758323° -82.376411°
Runways 1
Magnetic Variation 6.660° W
Sunrise 2017-12-16 12:31:41 UTC / 2017-12-16 07:31:41 Local
Sunset 2017-12-16 22:21:35 UTC / 2017-12-16 17:21:35 Local
Advertisement - Login to hide

Runways

ID Width Length Bearing (true) Bearing (mag) Surface Threshold Offset Overrun Length
05 150 ft / 46 m 8,007 ft / 2,441 m 39.85° 46.51° Concrete 0 ft / 0 m 0 ft / 0 m
23 150 ft / 46 m 8,007 ft / 2,441 m 219.86° 226.52° Concrete 0 ft / 0 m 0 ft / 0 m

Approach Navaids

Runway Type Ident Frequency Range Bearing (true) Bearing (mag) Slope Elevation
05 Localiser IGYH 108.30 MHz 18 nm / 33 km 39.86° 46.52° - 955 ft / 291 m (AMSL)
05 Glidescope IGYH 108.30 MHz 10 nm / 19 km 39.85° 46.51° 3.00° 954 ft / 291 m (AMSL)

Map

Weather


0- 5 10 15 20 25 30 35+ Temperature / ° C

Clouds and Precipitation
Forecast for 2017-12-16 18:00 UTC. Updated 2 hours ago

Ground ~20,000 ft ~40,000 ft Winds

METAR

KGYH 161847Z 25004KT 10SM SKC 09/M06 A3023

TAF

Not found

Frequencies

Recorded 127.32 MHz AWOS 3
Clearance 121.40 MHz CLNC DEL
Ground 121.40 MHz GND
Approach 118.80 MHz GREER APP/DEP
Unicom 133.32 MHz CTAF/UNICOM
Clearance 125.95 MHz CLNC DEL
Tower 133.32 MHz TWR
Warning: Do not use this data for real-world aviation or navigation. No guarantee of current accuracy is given.